createdAt,value
2019-05-06T00:01:36.375Z,72.66
2019-05-06T00:06:43.891Z,72.31
2019-05-06T00:11:48.842Z,72.46
2019-05-06T00:16:55.101Z,72.34
2019-05-06T00:22:01.534Z,72.70
2019-05-06T00:27:14.921Z,73.23
2019-05-06T00:32:20.221Z,73.25
2019-05-06T00:37:25.596Z,73.31
2019-05-06T00:42:39.199Z,73.61
2019-05-06T00:47:44.551Z,73.83
2019-05-06T00:52:51.146Z,74.31
2019-05-06T00:57:57.501Z,74.54
2019-05-06T01:03:05.370Z,74.67
2019-05-06T01:08:10.791Z,74.56
2019-05-06T01:13:41.146Z,74.69
2019-05-06T01:18:46.592Z,74.86
2019-05-06T01:23:54.488Z,75.35
2019-05-06T01:28:59.900Z,75.50
2019-05-06T01:34:05.306Z,75.81
2019-05-06T01:39:44.755Z,75.52
2019-05-06T01:44:50.249Z,75.43
2019-05-06T01:49:55.666Z,75.88
2019-05-06T01:55:01.072Z,76.23
2019-05-06T02:00:08.061Z,76.58
2019-05-06T02:05:15.298Z,76.98
2019-05-06T02:10:20.514Z,78.04
2019-05-06T02:15:26.817Z,77.52
2019-05-06T02:20:34.021Z,77.50
2019-05-06T02:25:44.676Z,77.84
2019-05-06T02:31:07.820Z,77.49
2019-05-06T02:36:20.683Z,77.89
2019-05-06T02:41:26.012Z,77.87
2019-05-06T02:46:33.799Z,78.11
2019-05-06T02:51:38.562Z,78.65
2019-05-06T02:56:43.818Z,78.95
2019-05-06T03:01:49.832Z,79.68
2019-05-06T03:06:55.305Z,79.32
2019-05-06T03:12:03.390Z,79.29
2019-05-06T03:17:07.618Z,78.29
2019-05-06T03:22:34.880Z,78.73
2019-05-06T03:27:46.504Z,79.25
2019-05-06T03:33:27.530Z,80.17
2019-05-06T03:37:56.363Z,80.61
2019-05-06T03:43:02.802Z,79.66
2019-05-06T03:48:13.668Z,79.43
2019-05-06T03:53:19.282Z,80.22
2019-05-06T03:58:26.815Z,80.50
2019-05-06T04:03:43.857Z,80.42
2019-05-06T04:08:43.465Z,80.91
2019-05-06T04:13:49.367Z,81.12
2019-05-06T04:19:12.830Z,80.68
2019-05-06T04:24:36.127Z,80.34
2019-05-06T04:29:42.837Z,80.21
2019-05-06T04:34:48.278Z,80.88
2019-05-06T04:39:54.077Z,80.82
2019-05-06T04:44:59.971Z,80.56
2019-05-06T04:50:07.584Z,81.05
2019-05-06T04:59:05.814Z,80.38
2019-05-06T05:04:26.866Z,80.18
2019-05-06T05:09:18.527Z,79.97
2019-05-06T05:14:42.316Z,80.11
2019-05-06T05:19:47.662Z,80.00
2019-05-06T05:24:52.978Z,79.23
2019-05-06T05:29:58.326Z,78.81
2019-05-06T05:35:03.986Z,78.37
2019-05-06T05:40:09.684Z,77.51
2019-05-06T05:45:15.284Z,76.24
2019-05-06T05:50:29.002Z,75.61
2019-05-06T05:55:35.115Z,74.76
2019-05-06T06:00:42.577Z,74.30
2019-05-06T06:05:48.284Z,73.97
2019-05-06T06:11:15.599Z,73.15
2019-05-06T06:16:34.954Z,72.27
2019-05-06T06:21:43.821Z,71.74
2019-05-06T06:26:49.243Z,70.91
2019-05-06T06:32:16.921Z,69.47
2019-05-06T06:37:47.153Z,68.97
2019-05-06T06:42:56.530Z,68.97
2019-05-06T06:48:03.070Z,68.02
2019-05-06T06:53:09.544Z,66.95
2019-05-06T06:58:29.283Z,65.39
2019-05-06T07:03:44.225Z,67.39
2019-05-06T07:08:51.823Z,66.97
2019-05-06T07:13:57.775Z,66.98
2019-05-06T07:19:03.385Z,67.68
2019-05-06T07:24:08.633Z,67.15
2019-05-06T07:29:21.689Z,65.82
2019-05-06T07:34:22.892Z,65.28
2019-05-06T07:39:28.227Z,62.94
2019-05-06T07:45:07.399Z,61.78
2019-05-06T07:50:13.296Z,61.78
2019-05-06T07:55:18.918Z,61.32
2019-05-06T08:00:25.590Z,56.70
2019-05-06T08:05:33.278Z,58.91
2019-05-06T08:10:38.528Z,56.88
2019-05-06T08:15:43.944Z,56.90
2019-05-06T08:20:49.335Z,57.33
2019-05-06T08:26:09.040Z,56.77
2019-05-06T08:31:02.392Z,57.51
2019-05-06T08:36:14.531Z,57.85
2019-05-06T08:41:17.901Z,57.48
2019-05-06T08:46:23.730Z,55.79
2019-05-06T08:51:36.065Z,54.07
2019-05-06T08:56:42.707Z,52.51
2019-05-06T09:01:49.765Z,52.05
2019-05-06T09:06:55.143Z,50.06
2019-05-06T09:12:02.464Z,50.36
2019-05-06T09:17:07.876Z,50.55
2019-05-06T09:22:13.220Z,50.79
2019-05-06T09:27:24.728Z,52.27
2019-05-06T09:32:38.026Z,53.16
2019-05-06T09:37:43.230Z,52.24
2019-05-06T09:42:48.564Z,53.78
2019-05-06T09:48:09.645Z,54.80
2019-05-06T09:53:26.372Z,54.81
2019-05-06T09:58:32.576Z,52.69
2019-05-06T10:03:38.265Z,51.00
2019-05-06T10:08:43.510Z,53.63
2019-05-06T10:13:49.090Z,52.35
2019-05-06T10:18:54.714Z,52.79
2019-05-06T10:24:02.198Z,53.11
2019-05-06T10:29:27.830Z,52.72
2019-05-06T10:34:33.083Z,52.32
2019-05-06T10:39:42.876Z,51.19
2019-05-06T10:44:56.163Z,49.45
2019-05-06T10:50:02.217Z,49.16
2019-05-06T10:55:08.551Z,50.65
2019-05-06T11:00:14.224Z,50.45
2019-05-06T11:05:20.434Z,50.34
2019-05-06T11:14:08.558Z,49.68
2019-05-06T11:19:13.957Z,49.09
2019-05-06T11:24:19.270Z,48.12
2019-05-06T11:29:29.419Z,46.49
2019-05-06T11:34:55.299Z,44.96
2019-05-06T11:40:00.630Z,44.55
2019-05-06T11:45:06.954Z,45.30
2019-05-06T11:50:13.074Z,45.57
2019-05-06T11:55:28.859Z,43.66
2019-05-06T12:00:35.983Z,44.13
2019-05-06T12:05:41.859Z,46.70
2019-05-06T12:10:47.147Z,45.64
2019-05-06T12:15:52.542Z,43.18
2019-05-06T12:21:08.167Z,41.78
2019-05-06T12:26:05.060Z,42.83
2019-05-06T12:31:12.507Z,42.28
2019-05-06T12:36:26.695Z,41.81
2019-05-06T12:41:33.560Z,41.86
2019-05-06T12:47:03.331Z,39.69
2019-05-06T12:52:09.282Z,41.36
2019-05-06T12:57:14.506Z,41.29
2019-05-06T13:02:23.557Z,43.39
2019-05-06T13:07:35.066Z,45.93
2019-05-06T13:12:42.592Z,45.64
2019-05-06T13:17:49.759Z,43.70
2019-05-06T13:23:08.116Z,42.45
2019-05-06T13:28:12.762Z,42.67
2019-05-06T13:33:39.685Z,42.51
2019-05-06T13:38:45.125Z,42.75
2019-05-06T13:44:08.501Z,45.14
2019-05-06T13:49:31.576Z,46.30
2019-05-06T13:54:38.764Z,45.45
2019-05-06T13:59:44.470Z,43.36
2019-05-06T14:04:52.508Z,42.84
2019-05-06T14:09:57.163Z,40.89
2019-05-06T14:15:04.416Z,39.22
2019-05-06T14:20:12.510Z,38.19
2019-05-06T14:25:43.217Z,42.16
2019-05-06T14:31:03.338Z,41.39
2019-05-06T14:36:08.743Z,43.52
2019-05-06T14:41:18.166Z,44.81
2019-05-06T14:46:23.517Z,46.22
2019-05-06T14:51:28.895Z,47.62
2019-05-06T14:56:45.582Z,47.61
2019-05-06T15:01:53.697Z,47.62
2019-05-06T15:06:58.102Z,48.92
2019-05-06T15:12:03.409Z,49.36
2019-05-06T15:17:10.181Z,49.86
2019-05-06T15:22:16.233Z,49.46
2019-05-06T15:27:22.716Z,50.34
2019-05-06T15:32:38.918Z,50.30
2019-05-06T15:37:56.266Z,51.06
2019-05-06T15:43:02.179Z,51.05
2019-05-06T15:48:07.805Z,51.38
2019-05-06T15:53:13.094Z,51.02
2019-05-06T15:58:19.063Z,51.24
2019-05-06T16:03:24.770Z,51.14
2019-05-06T16:08:32.057Z,50.90
2019-05-06T16:13:38.028Z,50.39
2019-05-06T16:18:43.879Z,49.79
2019-05-06T16:23:57.549Z,50.83
2019-05-06T16:29:03.254Z,49.49
2019-05-06T16:34:08.631Z,50.54
2019-05-06T16:39:13.909Z,49.44
2019-05-06T16:44:19.310Z,49.40
2019-05-06T16:49:24.610Z,49.34
2019-05-06T16:54:31.535Z,50.37
2019-05-06T16:59:37.794Z,49.36
2019-05-06T17:05:03.453Z,48.93
2019-05-06T17:10:11.747Z,50.98
2019-05-06T17:15:18.611Z,50.33
2019-05-06T17:20:23.843Z,50.93
2019-05-06T17:25:29.177Z,50.09
2019-05-06T17:30:43.069Z,50.03
2019-05-06T17:35:48.550Z,51.23
2019-05-06T17:40:53.880Z,51.66
2019-05-06T17:46:03.760Z,52.12
2019-05-06T17:51:29.611Z,52.46
2019-05-06T17:56:34.902Z,52.88
2019-05-06T18:01:43.980Z,54.04
2019-05-06T18:06:49.632Z,54.22
2019-05-06T18:11:58.909Z,55.13
2019-05-06T18:17:03.734Z,55.90
2019-05-06T18:22:09.123Z,56.10
2019-05-06T18:27:14.420Z,56.28
2019-05-06T18:32:20.727Z,56.25
2019-05-06T18:37:29.082Z,56.99
2019-05-06T18:42:34.676Z,57.86
2019-05-06T18:47:42.229Z,58.59
2019-05-06T18:52:47.663Z,62.50
2019-05-06T18:57:53.727Z,64.32
2019-05-06T19:02:59.512Z,64.71
2019-05-06T19:08:09.915Z,65.69
2019-05-06T19:13:17.672Z,65.95
2019-05-06T19:18:23.020Z,66.39
2019-05-06T19:23:28.400Z,66.61
2019-05-06T19:28:33.967Z,66.81
2019-05-06T19:33:39.604Z,66.45
2019-05-06T19:38:44.917Z,67.24
2019-05-06T19:43:52.398Z,67.53
2019-05-06T19:48:59.037Z,67.27
2019-05-06T19:54:05.012Z,67.90
2019-05-06T19:59:12.954Z,68.62
2019-05-06T20:04:18.498Z,67.38
2019-05-06T20:09:46.441Z,67.41
2019-05-06T20:14:52.574Z,67.62
2019-05-06T20:19:58.470Z,67.96
2019-05-06T20:25:05.304Z,68.65
2019-05-06T20:30:11.143Z,68.19
2019-05-06T20:35:16.981Z,69.36
2019-05-06T20:40:23.258Z,69.20
2019-05-06T20:45:32.513Z,69.92
2019-05-06T20:50:36.551Z,71.02
2019-05-06T20:55:43.420Z,70.62
2019-05-06T21:00:49.685Z,70.31
2019-05-06T21:05:56.213Z,70.84
2019-05-06T21:11:04.075Z,71.23
2019-05-06T21:16:09.086Z,71.44
2019-05-06T21:21:14.676Z,71.04
2019-05-06T21:26:22.075Z,70.63
2019-05-06T21:31:27.152Z,72.68
2019-05-06T21:36:32.457Z,73.39
2019-05-06T21:41:38.016Z,73.65
2019-05-06T21:46:43.541Z,72.98
2019-05-06T21:51:49.222Z,72.66
2019-05-06T21:56:54.517Z,73.08
2019-05-06T22:01:59.840Z,73.11
2019-05-06T22:07:05.076Z,73.97
2019-05-06T22:12:10.441Z,74.23
2019-05-06T22:17:15.728Z,74.03
2019-05-06T22:22:23.443Z,74.76
2019-05-06T22:27:29.621Z,73.80
2019-05-06T22:32:45.625Z,73.78
2019-05-06T22:37:52.934Z,76.08
2019-05-06T22:42:58.014Z,75.50
2019-05-06T22:48:04.572Z,75.38
2019-05-06T22:53:10.128Z,74.12
2019-05-06T22:58:15.487Z,73.26
2019-05-06T23:03:22.854Z,73.65
2019-05-06T23:08:28.019Z,74.63
2019-05-06T23:13:33.322Z,73.55
2019-05-06T23:18:38.554Z,74.36
2019-05-06T23:23:44.190Z,73.92
2019-05-06T23:28:49.422Z,74.87
2019-05-06T23:33:54.831Z,73.69
2019-05-06T23:39:37.202Z,74.71
2019-05-06T23:45:17.828Z,73.82
2019-05-06T23:50:58.678Z,73.52
2019-05-06T23:56:39.957Z,74.27
